sensor_id;sensor_type;location;lat;lon;timestamp;P1;durP1;ratioP1;P2;durP2;ratioP2
76896;SDS011;65856;52.178;21.176;2024-03-02T00:00:23;34.70;;;18.20;;
76896;SDS011;65856;52.178;21.176;2024-03-02T00:02:50;31.90;;;17.10;;
76896;SDS011;65856;52.178;21.176;2024-03-02T00:05:20;37.30;;;18.70;;
76896;SDS011;65856;52.178;21.176;2024-03-02T00:07:57;34.90;;;17.80;;
76896;SDS011;65856;52.178;21.176;2024-03-02T00:10:32;33.80;;;18.00;;
76896;SDS011;65856;52.178;21.176;2024-03-02T00:13:02;35.00;;;17.80;;
76896;SDS011;65856;52.178;21.176;2024-03-02T00:18:09;30.30;;;15.60;;
76896;SDS011;65856;52.178;21.176;2024-03-02T00:20:36;35.40;;;18.50;;
76896;SDS011;65856;52.178;21.176;2024-03-02T00:23:06;31.70;;;16.90;;
76896;SDS011;65856;52.178;21.176;2024-03-02T00:25:43;32.80;;;16.80;;
76896;SDS011;65856;52.178;21.176;2024-03-02T00:28:16;36.00;;;18.40;;
76896;SDS011;65856;52.178;21.176;2024-03-02T00:33:46;31.90;;;16.80;;
76896;SDS011;65856;52.178;21.176;2024-03-02T00:36:15;33.40;;;17.60;;
76896;SDS011;65856;52.178;21.176;2024-03-02T00:38:51;33.30;;;18.10;;
76896;SDS011;65856;52.178;21.176;2024-03-02T00:41:27;34.80;;;18.70;;
76896;SDS011;65856;52.178;21.176;2024-03-02T00:44:03;33.50;;;18.30;;
76896;SDS011;65856;52.178;21.176;2024-03-02T00:46:40;32.50;;;17.70;;
76896;SDS011;65856;52.178;21.176;2024-03-02T00:49:18;32.00;;;17.90;;
76896;SDS011;65856;52.178;21.176;2024-03-02T00:51:48;33.60;;;18.10;;
76896;SDS011;65856;52.178;21.176;2024-03-02T00:54:22;34.70;;;16.90;;
76896;SDS011;65856;52.178;21.176;2024-03-02T00:56:50;35.80;;;18.50;;
76896;SDS011;65856;52.178;21.176;2024-03-02T00:59:16;35.50;;;18.00;;
76896;SDS011;65856;52.178;21.176;2024-03-02T01:01:42;31.90;;;16.90;;
76896;SDS011;65856;52.178;21.176;2024-03-02T01:04:08;31.40;;;17.00;;
76896;SDS011;65856;52.178;21.176;2024-03-02T01:06:35;34.20;;;18.40;;
76896;SDS011;65856;52.178;21.176;2024-03-02T01:09:01;32.90;;;16.90;;
76896;SDS011;65856;52.178;21.176;2024-03-02T01:11:28;31.00;;;17.40;;
76896;SDS011;65856;52.178;21.176;2024-03-02T01:13:53;31.80;;;17.60;;
76896;SDS011;65856;52.178;21.176;2024-03-02T01:16:19;32.00;;;15.80;;
76896;SDS011;65856;52.178;21.176;2024-03-02T01:18:45;34.70;;;18.30;;
76896;SDS011;65856;52.178;21.176;2024-03-02T01:21:10;32.70;;;17.20;;
76896;SDS011;65856;52.178;21.176;2024-03-02T01:23:36;34.50;;;17.20;;
76896;SDS011;65856;52.178;21.176;2024-03-02T01:26:01;33.30;;;17.90;;
76896;SDS011;65856;52.178;21.176;2024-03-02T01:28:27;28.50;;;15.30;;
76896;SDS011;65856;52.178;21.176;2024-03-02T01:30:52;31.70;;;16.90;;
76896;SDS011;65856;52.178;21.176;2024-03-02T01:33:19;31.80;;;17.00;;
76896;SDS011;65856;52.178;21.176;2024-03-02T01:35:45;29.60;;;17.00;;
76896;SDS011;65856;52.178;21.176;2024-03-02T01:38:10;29.60;;;17.10;;
76896;SDS011;65856;52.178;21.176;2024-03-02T01:40:37;31.60;;;17.00;;
76896;SDS011;65856;52.178;21.176;2024-03-02T01:43:06;30.90;;;17.20;;
76896;SDS011;65856;52.178;21.176;2024-03-02T01:45:33;30.50;;;16.90;;
76896;SDS011;65856;52.178;21.176;2024-03-02T01:48:00;31.10;;;15.80;;
76896;SDS011;65856;52.178;21.176;2024-03-02T01:50:31;34.20;;;18.10;;
76896;SDS011;65856;52.178;21.176;2024-03-02T01:52:57;29.10;;;16.30;;
76896;SDS011;65856;52.178;21.176;2024-03-02T01:55:24;28.60;;;16.20;;
76896;SDS011;65856;52.178;21.176;2024-03-02T01:57:50;26.40;;;15.00;;
76896;SDS011;65856;52.178;21.176;2024-03-02T02:00:17;30.10;;;16.60;;
76896;SDS011;65856;52.178;21.176;2024-03-02T02:02:44;29.20;;;15.80;;
76896;SDS011;65856;52.178;21.176;2024-03-02T02:05:09;27.90;;;16.30;;
76896;SDS011;65856;52.178;21.176;2024-03-02T02:07:35;29.00;;;15.90;;
76896;SDS011;65856;52.178;21.176;2024-03-02T02:10:01;28.30;;;15.30;;
76896;SDS011;65856;52.178;21.176;2024-03-02T02:12:27;27.10;;;15.60;;
76896;SDS011;65856;52.178;21.176;2024-03-02T02:14:52;30.30;;;16.00;;
76896;SDS011;65856;52.178;21.176;2024-03-02T02:17:18;29.90;;;16.50;;
76896;SDS011;65856;52.178;21.176;2024-03-02T02:19:44;27.60;;;15.80;;
76896;SDS011;65856;52.178;21.176;2024-03-02T02:22:10;29.70;;;17.10;;
76896;SDS011;65856;52.178;21.176;2024-03-02T02:24:39;28.90;;;16.30;;
76896;SDS011;65856;52.178;21.176;2024-03-02T02:27:06;30.20;;;15.90;;
76896;SDS011;65856;52.178;21.176;2024-03-02T02:29:32;25.70;;;15.00;;
76896;SDS011;65856;52.178;21.176;2024-03-02T02:31:57;29.40;;;15.60;;
76896;SDS011;65856;52.178;21.176;2024-03-02T02:34:23;26.60;;;14.70;;
76896;SDS011;65856;52.178;21.176;2024-03-02T02:36:48;28.80;;;16.00;;
76896;SDS011;65856;52.178;21.176;2024-03-02T02:39:16;26.00;;;15.10;;
76896;SDS011;65856;52.178;21.176;2024-03-02T02:41:42;32.00;;;15.90;;
76896;SDS011;65856;52.178;21.176;2024-03-02T02:44:08;27.20;;;14.90;;
76896;SDS011;65856;52.178;21.176;2024-03-02T02:46:33;29.00;;;15.90;;
76896;SDS011;65856;52.178;21.176;2024-03-02T02:48:59;26.80;;;15.10;;
76896;SDS011;65856;52.178;21.176;2024-03-02T02:51:24;30.50;;;16.20;;
76896;SDS011;65856;52.178;21.176;2024-03-02T02:53:52;27.30;;;15.50;;
76896;SDS011;65856;52.178;21.176;2024-03-02T02:56:18;24.10;;;14.70;;
76896;SDS011;65856;52.178;21.176;2024-03-02T02:58:43;27.90;;;14.90;;
76896;SDS011;65856;52.178;21.176;2024-03-02T03:01:09;27.40;;;15.30;;
76896;SDS011;65856;52.178;21.176;2024-03-02T03:03:34;29.90;;;15.30;;
76896;SDS011;65856;52.178;21.176;2024-03-02T03:06:00;28.50;;;15.70;;
76896;SDS011;65856;52.178;21.176;2024-03-02T03:08:25;27.80;;;15.50;;
76896;SDS011;65856;52.178;21.176;2024-03-02T03:10:50;27.00;;;15.00;;
76896;SDS011;65856;52.178;21.176;2024-03-02T03:13:16;27.60;;;15.60;;
76896;SDS011;65856;52.178;21.176;2024-03-02T03:15:41;30.60;;;15.90;;
76896;SDS011;65856;52.178;21.176;2024-03-02T03:18:07;27.60;;;15.90;;
76896;SDS011;65856;52.178;21.176;2024-03-02T03:20:33;25.40;;;15.30;;
76896;SDS011;65856;52.178;21.176;2024-03-02T03:22:59;25.50;;;14.80;;
76896;SDS011;65856;52.178;21.176;2024-03-02T03:25:24;25.30;;;14.40;;
76896;SDS011;65856;52.178;21.176;2024-03-02T03:27:50;25.80;;;14.80;;
76896;SDS011;65856;52.178;21.176;2024-03-02T03:30:18;28.50;;;15.50;;
76896;SDS011;65856;52.178;21.176;2024-03-02T03:32:43;27.50;;;15.80;;
76896;SDS011;65856;52.178;21.176;2024-03-02T03:35:09;28.70;;;15.00;;
76896;SDS011;65856;52.178;21.176;2024-03-02T03:37:34;29.00;;;15.40;;
76896;SDS011;65856;52.178;21.176;2024-03-02T03:40:02;26.10;;;15.70;;
76896;SDS011;65856;52.178;21.176;2024-03-02T03:42:28;26.20;;;14.70;;
76896;SDS011;65856;52.178;21.176;2024-03-02T03:44:53;29.80;;;15.00;;
76896;SDS011;65856;52.178;21.176;2024-03-02T03:47:19;28.00;;;15.10;;
76896;SDS011;65856;52.178;21.176;2024-03-02T03:49:45;28.80;;;15.10;;
76896;SDS011;65856;52.178;21.176;2024-03-02T03:52:11;29.40;;;16.00;;
76896;SDS011;65856;52.178;21.176;2024-03-02T03:54:36;25.90;;;14.20;;
76896;SDS011;65856;52.178;21.176;2024-03-02T03:57:03;26.50;;;15.60;;
76896;SDS011;65856;52.178;21.176;2024-03-02T03:59:29;27.00;;;15.60;;
76896;SDS011;65856;52.178;21.176;2024-03-02T04:01:54;27.90;;;15.50;;
76896;SDS011;65856;52.178;21.176;2024-03-02T04:04:20;25.80;;;14.70;;
76896;SDS011;65856;52.178;21.176;2024-03-02T04:06:45;28.50;;;15.50;;
76896;SDS011;65856;52.178;21.176;2024-03-02T04:09:11;32.50;;;16.40;;
76896;SDS011;65856;52.178;21.176;2024-03-02T04:11:36;26.80;;;14.90;;
76896;SDS011;65856;52.178;21.176;2024-03-02T04:14:02;27.80;;;15.50;;
76896;SDS011;65856;52.178;21.176;2024-03-02T04:16:27;27.60;;;14.50;;
76896;SDS011;65856;52.178;21.176;2024-03-02T04:18:54;28.30;;;15.90;;
76896;SDS011;65856;52.178;21.176;2024-03-02T04:21:19;30.10;;;15.80;;
76896;SDS011;65856;52.178;21.176;2024-03-02T04:23:45;28.90;;;15.20;;
76896;SDS011;65856;52.178;21.176;2024-03-02T04:26:10;25.70;;;13.60;;
76896;SDS011;65856;52.178;21.176;2024-03-02T04:28:36;27.40;;;14.90;;
76896;SDS011;65856;52.178;21.176;2024-03-02T04:31:01;28.80;;;15.20;;
76896;SDS011;65856;52.178;21.176;2024-03-02T04:33:27;27.40;;;15.00;;
76896;SDS011;65856;52.178;21.176;2024-03-02T04:35:52;28.20;;;15.10;;
76896;SDS011;65856;52.178;21.176;2024-03-02T04:38:18;28.10;;;15.50;;
76896;SDS011;65856;52.178;21.176;2024-03-02T04:40:43;29.10;;;14.50;;
76896;SDS011;65856;52.178;21.176;2024-03-02T04:43:08;26.70;;;14.80;;
76896;SDS011;65856;52.178;21.176;2024-03-02T04:45:38;26.40;;;14.20;;
76896;SDS011;65856;52.178;21.176;2024-03-02T04:48:03;30.20;;;15.90;;
76896;SDS011;65856;52.178;21.176;2024-03-02T04:50:29;28.40;;;15.00;;
76896;SDS011;65856;52.178;21.176;2024-03-02T04:52:55;27.60;;;14.20;;
76896;SDS011;65856;52.178;21.176;2024-03-02T04:55:20;27.80;;;15.00;;
76896;SDS011;65856;52.178;21.176;2024-03-02T04:58:14;27.40;;;15.00;;
76896;SDS011;65856;52.178;21.176;2024-03-02T05:00:40;28.60;;;14.30;;
76896;SDS011;65856;52.178;21.176;2024-03-02T05:03:05;29.40;;;14.20;;
76896;SDS011;65856;52.178;21.176;2024-03-02T05:05:30;27.30;;;15.10;;
76896;SDS011;65856;52.178;21.176;2024-03-02T05:07:56;27.30;;;14.10;;
76896;SDS011;65856;52.178;21.176;2024-03-02T05:10:21;27.80;;;15.00;;
76896;SDS011;65856;52.178;21.176;2024-03-02T05:12:47;29.10;;;15.30;;
76896;SDS011;65856;52.178;21.176;2024-03-02T05:15:13;29.10;;;14.80;;
76896;SDS011;65856;52.178;21.176;2024-03-02T05:17:40;28.60;;;15.10;;
76896;SDS011;65856;52.178;21.176;2024-03-02T05:20:08;28.70;;;14.40;;
76896;SDS011;65856;52.178;21.176;2024-03-02T05:22:34;28.40;;;14.70;;
76896;SDS011;65856;52.178;21.176;2024-03-02T05:25:01;26.80;;;14.50;;
76896;SDS011;65856;52.178;21.176;2024-03-02T05:27:27;28.50;;;14.20;;
76896;SDS011;65856;52.178;21.176;2024-03-02T05:29:53;30.90;;;15.10;;
76896;SDS011;65856;52.178;21.176;2024-03-02T05:32:18;29.70;;;14.70;;
76896;SDS011;65856;52.178;21.176;2024-03-02T05:34:43;29.30;;;14.60;;
76896;SDS011;65856;52.178;21.176;2024-03-02T05:37:09;25.80;;;14.30;;
76896;SDS011;65856;52.178;21.176;2024-03-02T05:39:34;31.10;;;15.50;;
76896;SDS011;65856;52.178;21.176;2024-03-02T05:42:00;25.70;;;13.50;;
76896;SDS011;65856;52.178;21.176;2024-03-02T05:44:25;28.10;;;13.90;;
76896;SDS011;65856;52.178;21.176;2024-03-02T05:46:50;27.10;;;13.70;;
76896;SDS011;65856;52.178;21.176;2024-03-02T05:49:16;27.50;;;13.30;;
76896;SDS011;65856;52.178;21.176;2024-03-02T05:51:41;27.80;;;14.20;;
76896;SDS011;65856;52.178;21.176;2024-03-02T05:54:07;24.70;;;13.30;;
76896;SDS011;65856;52.178;21.176;2024-03-02T05:56:32;28.90;;;14.40;;
76896;SDS011;65856;52.178;21.176;2024-03-02T05:58:58;28.40;;;14.30;;
76896;SDS011;65856;52.178;21.176;2024-03-02T06:01:39;27.90;;;14.60;;
76896;SDS011;65856;52.178;21.176;2024-03-02T06:04:06;27.30;;;14.10;;
76896;SDS011;65856;52.178;21.176;2024-03-02T06:06:32;26.60;;;13.50;;
76896;SDS011;65856;52.178;21.176;2024-03-02T06:09:02;28.40;;;13.90;;
76896;SDS011;65856;52.178;21.176;2024-03-02T06:11:38;25.60;;;13.70;;
76896;SDS011;65856;52.178;21.176;2024-03-02T06:14:05;23.90;;;13.10;;
76896;SDS011;65856;52.178;21.176;2024-03-02T06:16:32;30.50;;;13.40;;
76896;SDS011;65856;52.178;21.176;2024-03-02T06:18:57;29.10;;;14.30;;
76896;SDS011;65856;52.178;21.176;2024-03-02T06:21:24;29.50;;;14.20;;
76896;SDS011;65856;52.178;21.176;2024-03-02T06:23:49;27.20;;;13.80;;
76896;SDS011;65856;52.178;21.176;2024-03-02T06:26:15;27.70;;;14.30;;
76896;SDS011;65856;52.178;21.176;2024-03-02T06:28:41;26.70;;;13.50;;
76896;SDS011;65856;52.178;21.176;2024-03-02T06:31:06;25.20;;;12.80;;
76896;SDS011;65856;52.178;21.176;2024-03-02T06:33:32;24.40;;;12.90;;
76896;SDS011;65856;52.178;21.176;2024-03-02T06:35:57;25.10;;;12.30;;
76896;SDS011;65856;52.178;21.176;2024-03-02T06:38:22;26.90;;;13.30;;
76896;SDS011;65856;52.178;21.176;2024-03-02T06:40:48;23.30;;;13.40;;
76896;SDS011;65856;52.178;21.176;2024-03-02T06:43:13;26.00;;;13.00;;
76896;SDS011;65856;52.178;21.176;2024-03-02T06:45:39;27.90;;;12.60;;
76896;SDS011;65856;52.178;21.176;2024-03-02T06:48:04;27.60;;;13.50;;
76896;SDS011;65856;52.178;21.176;2024-03-02T06:50:30;27.20;;;13.00;;
76896;SDS011;65856;52.178;21.176;2024-03-02T06:52:55;29.70;;;13.90;;
76896;SDS011;65856;52.178;21.176;2024-03-02T06:55:21;24.90;;;12.80;;
76896;SDS011;65856;52.178;21.176;2024-03-02T06:57:47;28.10;;;13.70;;
76896;SDS011;65856;52.178;21.176;2024-03-02T07:00:13;26.30;;;12.90;;
76896;SDS011;65856;52.178;21.176;2024-03-02T07:02:39;21.40;;;11.90;;
76896;SDS011;65856;52.178;21.176;2024-03-02T07:05:07;31.00;;;13.80;;
76896;SDS011;65856;52.178;21.176;2024-03-02T07:07:33;26.40;;;13.40;;
76896;SDS011;65856;52.178;21.176;2024-03-02T07:10:00;28.60;;;13.30;;
76896;SDS011;65856;52.178;21.176;2024-03-02T07:12:26;25.00;;;12.50;;
76896;SDS011;65856;52.178;21.176;2024-03-02T07:14:51;25.30;;;12.70;;
76896;SDS011;65856;52.178;21.176;2024-03-02T07:17:43;26.50;;;12.40;;
76896;SDS011;65856;52.178;21.176;2024-03-02T07:20:09;24.60;;;13.00;;
76896;SDS011;65856;52.178;21.176;2024-03-02T07:22:37;27.40;;;13.40;;
76896;SDS011;65856;52.178;21.176;2024-03-02T07:25:03;23.20;;;12.40;;
76896;SDS011;65856;52.178;21.176;2024-03-02T07:27:30;26.50;;;13.40;;
76896;SDS011;65856;52.178;21.176;2024-03-02T07:29:56;28.90;;;12.90;;
76896;SDS011;65856;52.178;21.176;2024-03-02T07:32:22;25.80;;;12.50;;
76896;SDS011;65856;52.178;21.176;2024-03-02T07:34:47;24.90;;;13.20;;
76896;SDS011;65856;52.178;21.176;2024-03-02T07:37:12;26.30;;;13.40;;
76896;SDS011;65856;52.178;21.176;2024-03-02T07:39:38;25.40;;;12.50;;
76896;SDS011;65856;52.178;21.176;2024-03-02T07:42:04;26.00;;;12.60;;
76896;SDS011;65856;52.178;21.176;2024-03-02T07:44:29;24.60;;;12.30;;
76896;SDS011;65856;52.178;21.176;2024-03-02T07:46:55;24.00;;;12.80;;
76896;SDS011;65856;52.178;21.176;2024-03-02T07:49:20;29.40;;;13.40;;
76896;SDS011;65856;52.178;21.176;2024-03-02T07:51:46;23.60;;;12.30;;
76896;SDS011;65856;52.178;21.176;2024-03-02T07:54:11;25.40;;;12.00;;
76896;SDS011;65856;52.178;21.176;2024-03-02T07:56:37;25.10;;;12.70;;
76896;SDS011;65856;52.178;21.176;2024-03-02T07:59:03;28.00;;;13.20;;
76896;SDS011;65856;52.178;21.176;2024-03-02T08:01:30;26.60;;;12.80;;
76896;SDS011;65856;52.178;21.176;2024-03-02T08:04:00;24.70;;;13.10;;
76896;SDS011;65856;52.178;21.176;2024-03-02T08:09:00;23.60;;;11.40;;
76896;SDS011;65856;52.178;21.176;2024-03-02T08:11:26;24.40;;;12.10;;
76896;SDS011;65856;52.178;21.176;2024-03-02T08:13:52;25.20;;;12.90;;
76896;SDS011;65856;52.178;21.176;2024-03-02T08:16:20;29.70;;;13.90;;
76896;SDS011;65856;52.178;21.176;2024-03-02T08:18:50;26.20;;;12.60;;
76896;SDS011;65856;52.178;21.176;2024-03-02T08:21:16;24.50;;;12.90;;
76896;SDS011;65856;52.178;21.176;2024-03-02T08:23:45;23.30;;;11.80;;
76896;SDS011;65856;52.178;21.176;2024-03-02T08:26:11;27.90;;;12.80;;
76896;SDS011;65856;52.178;21.176;2024-03-02T08:28:36;28.10;;;12.90;;
76896;SDS011;65856;52.178;21.176;2024-03-02T08:31:05;28.30;;;12.80;;
76896;SDS011;65856;52.178;21.176;2024-03-02T08:33:30;25.70;;;13.00;;
76896;SDS011;65856;52.178;21.176;2024-03-02T08:35:56;30.90;;;13.50;;
76896;SDS011;65856;52.178;21.176;2024-03-02T08:38:21;30.80;;;14.30;;
76896;SDS011;65856;52.178;21.176;2024-03-02T08:40:47;30.60;;;13.80;;
76896;SDS011;65856;52.178;21.176;2024-03-02T08:43:16;27.90;;;13.40;;
76896;SDS011;65856;52.178;21.176;2024-03-02T08:45:41;27.60;;;13.90;;
76896;SDS011;65856;52.178;21.176;2024-03-02T08:48:08;31.30;;;14.30;;
76896;SDS011;65856;52.178;21.176;2024-03-02T08:50:34;29.30;;;13.70;;
76896;SDS011;65856;52.178;21.176;2024-03-02T08:53:05;30.20;;;14.30;;
76896;SDS011;65856;52.178;21.176;2024-03-02T08:55:31;29.10;;;13.30;;
76896;SDS011;65856;52.178;21.176;2024-03-02T08:57:56;32.20;;;14.60;;
76896;SDS011;65856;52.178;21.176;2024-03-02T09:00:22;35.20;;;13.70;;
76896;SDS011;65856;52.178;21.176;2024-03-02T09:02:48;32.30;;;14.30;;
76896;SDS011;65856;52.178;21.176;2024-03-02T09:05:14;25.50;;;13.50;;
76896;SDS011;65856;52.178;21.176;2024-03-02T09:07:40;27.00;;;13.70;;
76896;SDS011;65856;52.178;21.176;2024-03-02T09:10:06;28.50;;;13.50;;
76896;SDS011;65856;52.178;21.176;2024-03-02T09:12:32;32.30;;;14.50;;
76896;SDS011;65856;52.178;21.176;2024-03-02T09:14:59;30.50;;;14.30;;
76896;SDS011;65856;52.178;21.176;2024-03-02T09:17:25;26.60;;;13.40;;
76896;SDS011;65856;52.178;21.176;2024-03-02T09:19:50;29.00;;;13.90;;
76896;SDS011;65856;52.178;21.176;2024-03-02T09:22:19;32.50;;;15.30;;
76896;SDS011;65856;52.178;21.176;2024-03-02T09:24:45;28.40;;;13.80;;
76896;SDS011;65856;52.178;21.176;2024-03-02T09:27:11;28.50;;;14.00;;
76896;SDS011;65856;52.178;21.176;2024-03-02T09:29:36;27.20;;;13.30;;
76896;SDS011;65856;52.178;21.176;2024-03-02T09:32:02;29.20;;;13.80;;
76896;SDS011;65856;52.178;21.176;2024-03-02T09:34:28;30.80;;;13.70;;
76896;SDS011;65856;52.178;21.176;2024-03-02T09:36:53;28.60;;;13.10;;
76896;SDS011;65856;52.178;21.176;2024-03-02T09:39:19;26.40;;;13.40;;
76896;SDS011;65856;52.178;21.176;2024-03-02T09:41:44;26.10;;;13.90;;
76896;SDS011;65856;52.178;21.176;2024-03-02T09:44:10;28.20;;;14.40;;
76896;SDS011;65856;52.178;21.176;2024-03-02T09:46:35;26.00;;;13.40;;
76896;SDS011;65856;52.178;21.176;2024-03-02T09:49:02;29.50;;;14.30;;
76896;SDS011;65856;52.178;21.176;2024-03-02T09:51:28;28.80;;;14.50;;
76896;SDS011;65856;52.178;21.176;2024-03-02T09:53:55;28.40;;;13.80;;
76896;SDS011;65856;52.178;21.176;2024-03-02T09:56:21;29.00;;;14.20;;
76896;SDS011;65856;52.178;21.176;2024-03-02T09:58:47;31.70;;;15.40;;
76896;SDS011;65856;52.178;21.176;2024-03-02T10:01:12;28.00;;;14.30;;
76896;SDS011;65856;52.178;21.176;2024-03-02T10:03:38;32.20;;;14.80;;
76896;SDS011;65856;52.178;21.176;2024-03-02T10:06:24;32.10;;;15.00;;
76896;SDS011;65856;52.178;21.176;2024-03-02T10:08:54;30.80;;;14.50;;
76896;SDS011;65856;52.178;21.176;2024-03-02T10:11:30;31.00;;;13.30;;
76896;SDS011;65856;52.178;21.176;2024-03-02T10:14:09;27.80;;;14.60;;
76896;SDS011;65856;52.178;21.176;2024-03-02T10:16:37;31.10;;;15.90;;
76896;SDS011;65856;52.178;21.176;2024-03-02T10:19:21;31.70;;;15.60;;
76896;SDS011;65856;52.178;21.176;2024-03-02T10:21:48;29.30;;;14.90;;
76896;SDS011;65856;52.178;21.176;2024-03-02T10:24:18;30.60;;;14.70;;
76896;SDS011;65856;52.178;21.176;2024-03-02T10:26:45;31.50;;;15.20;;
76896;SDS011;65856;52.178;21.176;2024-03-02T10:29:11;30.40;;;14.40;;
76896;SDS011;65856;52.178;21.176;2024-03-02T10:31:42;29.80;;;14.80;;
76896;SDS011;65856;52.178;21.176;2024-03-02T10:34:10;35.20;;;15.10;;
76896;SDS011;65856;52.178;21.176;2024-03-02T10:36:37;28.80;;;14.70;;
76896;SDS011;65856;52.178;21.176;2024-03-02T10:39:04;31.40;;;15.80;;
76896;SDS011;65856;52.178;21.176;2024-03-02T10:41:34;30.30;;;15.90;;
76896;SDS011;65856;52.178;21.176;2024-03-02T10:44:08;34.60;;;16.80;;
76896;SDS011;65856;52.178;21.176;2024-03-02T10:46:36;32.40;;;16.00;;
76896;SDS011;65856;52.178;21.176;2024-03-02T10:49:04;32.40;;;16.50;;
76896;SDS011;65856;52.178;21.176;2024-03-02T10:51:31;30.70;;;16.60;;
76896;SDS011;65856;52.178;21.176;2024-03-02T10:53:59;31.20;;;16.20;;
76896;SDS011;65856;52.178;21.176;2024-03-02T10:56:32;35.80;;;17.80;;
76896;SDS011;65856;52.178;21.176;2024-03-02T11:01:31;37.70;;;18.60;;
76896;SDS011;65856;52.178;21.176;2024-03-02T11:03:58;34.90;;;18.60;;
76896;SDS011;65856;52.178;21.176;2024-03-02T11:06:26;35.20;;;19.70;;
76896;SDS011;65856;52.178;21.176;2024-03-02T11:08:55;37.50;;;19.00;;
76896;SDS011;65856;52.178;21.176;2024-03-02T11:11:28;37.60;;;19.70;;
76896;SDS011;65856;52.178;21.176;2024-03-02T11:13:57;39.20;;;20.30;;
76896;SDS011;65856;52.178;21.176;2024-03-02T11:16:34;39.60;;;20.10;;
76896;SDS011;65856;52.178;21.176;2024-03-02T11:21:29;41.40;;;19.90;;
76896;SDS011;65856;52.178;21.176;2024-03-02T11:23:58;36.90;;;20.30;;
76896;SDS011;65856;52.178;21.176;2024-03-02T11:26:23;40.60;;;21.30;;
76896;SDS011;65856;52.178;21.176;2024-03-02T11:28:50;42.40;;;21.70;;
76896;SDS011;65856;52.178;21.176;2024-03-02T11:31:16;44.10;;;21.90;;
76896;SDS011;65856;52.178;21.176;2024-03-02T11:33:42;40.20;;;21.60;;
76896;SDS011;65856;52.178;21.176;2024-03-02T11:36:08;41.80;;;21.30;;
76896;SDS011;65856;52.178;21.176;2024-03-02T11:38:35;39.00;;;20.90;;
76896;SDS011;65856;52.178;21.176;2024-03-02T11:41:05;46.80;;;22.90;;
76896;SDS011;65856;52.178;21.176;2024-03-02T11:43:37;44.20;;;21.50;;
76896;SDS011;65856;52.178;21.176;2024-03-02T11:46:05;50.30;;;23.00;;
76896;SDS011;65856;52.178;21.176;2024-03-02T11:48:35;40.30;;;21.30;;
76896;SDS011;65856;52.178;21.176;2024-03-02T11:51:02;40.70;;;22.10;;
76896;SDS011;65856;52.178;21.176;2024-03-02T11:53:28;41.10;;;22.80;;
76896;SDS011;65856;52.178;21.176;2024-03-02T11:55:57;41.40;;;26.10;;
76896;SDS011;65856;52.178;21.176;2024-03-02T11:58:24;45.20;;;23.10;;
76896;SDS011;65856;52.178;21.176;2024-03-02T12:00:53;65.20;;;37.80;;
76896;SDS011;65856;52.178;21.176;2024-03-02T12:03:24;35.10;;;20.90;;
76896;SDS011;65856;52.178;21.176;2024-03-02T12:05:52;33.00;;;20.10;;
76896;SDS011;65856;52.178;21.176;2024-03-02T12:08:18;38.80;;;21.00;;
76896;SDS011;65856;52.178;21.176;2024-03-02T12:10:56;38.40;;;19.60;;
76896;SDS011;65856;52.178;21.176;2024-03-02T12:13:22;36.00;;;21.20;;
76896;SDS011;65856;52.178;21.176;2024-03-02T12:15:54;35.90;;;20.40;;
76896;SDS011;65856;52.178;21.176;2024-03-02T12:18:21;41.00;;;20.80;;
76896;SDS011;65856;52.178;21.176;2024-03-02T12:20:49;37.50;;;20.90;;
76896;SDS011;65856;52.178;21.176;2024-03-02T12:23:18;35.40;;;19.90;;
76896;SDS011;65856;52.178;21.176;2024-03-02T12:25:43;37.70;;;21.30;;
76896;SDS011;65856;52.178;21.176;2024-03-02T12:28:09;35.40;;;19.90;;
76896;SDS011;65856;52.178;21.176;2024-03-02T12:30:35;38.90;;;20.60;;
76896;SDS011;65856;52.178;21.176;2024-03-02T12:33:01;37.10;;;20.60;;
76896;SDS011;65856;52.178;21.176;2024-03-02T12:35:27;36.50;;;20.00;;
76896;SDS011;65856;52.178;21.176;2024-03-02T12:37:53;37.80;;;21.00;;
76896;SDS011;65856;52.178;21.176;2024-03-02T12:40:20;31.90;;;19.80;;
76896;SDS011;65856;52.178;21.176;2024-03-02T12:42:48;35.60;;;20.30;;
76896;SDS011;65856;52.178;21.176;2024-03-02T12:45:14;36.90;;;20.20;;
76896;SDS011;65856;52.178;21.176;2024-03-02T12:47:41;34.60;;;20.70;;
76896;SDS011;65856;52.178;21.176;2024-03-02T12:50:08;36.70;;;20.90;;
76896;SDS011;65856;52.178;21.176;2024-03-02T12:52:35;41.20;;;22.20;;
76896;SDS011;65856;52.178;21.176;2024-03-02T12:55:02;37.70;;;21.20;;
76896;SDS011;65856;52.178;21.176;2024-03-02T12:57:31;41.60;;;21.40;;
76896;SDS011;65856;52.178;21.176;2024-03-02T13:00:02;33.90;;;20.30;;
76896;SDS011;65856;52.178;21.176;2024-03-02T13:02:39;38.40;;;20.00;;
76896;SDS011;65856;52.178;21.176;2024-03-02T13:05:07;32.20;;;19.90;;
76896;SDS011;65856;52.178;21.176;2024-03-02T13:07:39;34.20;;;19.40;;
76896;SDS011;65856;52.178;21.176;2024-03-02T13:10:06;40.80;;;22.70;;
76896;SDS011;65856;52.178;21.176;2024-03-02T13:12:36;37.00;;;20.90;;
76896;SDS011;65856;52.178;21.176;2024-03-02T13:15:02;34.90;;;20.60;;
76896;SDS011;65856;52.178;21.176;2024-03-02T13:17:29;39.60;;;20.50;;
76896;SDS011;65856;52.178;21.176;2024-03-02T13:20:00;36.30;;;20.00;;
76896;SDS011;65856;52.178;21.176;2024-03-02T13:22:26;37.90;;;20.20;;
76896;SDS011;65856;52.178;21.176;2024-03-02T13:24:52;36.20;;;20.50;;
76896;SDS011;65856;52.178;21.176;2024-03-02T13:27:19;37.10;;;21.60;;
76896;SDS011;65856;52.178;21.176;2024-03-02T13:29:46;37.40;;;21.80;;
76896;SDS011;65856;52.178;21.176;2024-03-02T13:32:15;42.40;;;21.90;;
76896;SDS011;65856;52.178;21.176;2024-03-02T13:34:41;39.50;;;21.10;;
76896;SDS011;65856;52.178;21.176;2024-03-02T13:37:07;39.30;;;21.50;;
76896;SDS011;65856;52.178;21.176;2024-03-02T13:39:33;38.30;;;21.80;;
76896;SDS011;65856;52.178;21.176;2024-03-02T13:44:32;39.70;;;20.40;;
76896;SDS011;65856;52.178;21.176;2024-03-02T13:47:00;40.10;;;20.90;;
76896;SDS011;65856;52.178;21.176;2024-03-02T13:49:25;38.00;;;20.60;;
76896;SDS011;65856;52.178;21.176;2024-03-02T13:52:07;37.20;;;20.60;;
76896;SDS011;65856;52.178;21.176;2024-03-02T13:54:41;37.40;;;21.20;;
76896;SDS011;65856;52.178;21.176;2024-03-02T13:57:08;37.30;;;21.10;;
76896;SDS011;65856;52.178;21.176;2024-03-02T13:59:35;35.00;;;20.20;;
76896;SDS011;65856;52.178;21.176;2024-03-02T14:02:05;38.40;;;21.00;;
76896;SDS011;65856;52.178;21.176;2024-03-02T14:04:32;38.60;;;20.30;;
76896;SDS011;65856;52.178;21.176;2024-03-02T14:06:59;36.50;;;20.00;;
76896;SDS011;65856;52.178;21.176;2024-03-02T14:09:25;35.10;;;20.40;;
76896;SDS011;65856;52.178;21.176;2024-03-02T14:11:51;38.40;;;21.00;;
76896;SDS011;65856;52.178;21.176;2024-03-02T14:14:17;37.80;;;20.30;;
76896;SDS011;65856;52.178;21.176;2024-03-02T14:16:43;35.70;;;19.50;;
76896;SDS011;65856;52.178;21.176;2024-03-02T14:19:09;34.60;;;19.90;;
76896;SDS011;65856;52.178;21.176;2024-03-02T14:21:35;35.70;;;19.30;;
76896;SDS011;65856;52.178;21.176;2024-03-02T14:24:01;38.40;;;21.50;;